Time;durP1;ratioP1;P1;durP2;ratioP2;P2;SDS_P1;SDS_P2;PMS_P1;PMS_P2;Temp;Humidity;BMP_temperature;BMP_pressure;BME280_temperature;BME280_humidity;BME280_pressure;Samples;Min_cycle;Max_cycle;Signal;HPM_P1;HPM_P2
2022/10/26 00:01:13;;;;;;;4.70;1.90;;;;;;;13.32;100.00;100453.50;8378811;28;20050;-50
2022/10/26 00:05:13;;;;;;;9.80;2.40;;;;;;;13.29;100.00;100442.97;8380244;28;20032;-54
2022/10/26 00:09:14;;;;;;;6.38;1.90;;;;;;;13.33;100.00;100432.66;8379979;28;20049;-52
2022/10/26 00:13:14;;;;;;;9.10;2.53;;;;;;;13.34;100.00;100440.66;8376266;28;20114;-51
2022/10/26 00:17:15;;;;;;;5.65;2.20;;;;;;;13.41;100.00;100451.69;8358875;28;20495;-54
2022/10/26 00:21:17;;;;;;;10.25;1.80;;;;;;;13.46;100.00;100443.94;8345839;28;20511;-54
2022/10/26 00:25:17;;;;;;;6.35;1.83;;;;;;;13.48;100.00;100436.47;8346492;28;20034;-51
2022/10/26 00:29:18;;;;;;;8.30;2.17;;;;;;;13.38;100.00;100430.28;8364119;28;20098;-53
2022/10/26 00:33:19;;;;;;;6.43;1.95;;;;;;;13.35;100.00;100430.63;8378925;28;20052;-54
2022/10/26 00:37:20;;;;;;;11.93;2.38;;;;;;;13.33;100.00;100438.91;8378952;28;20505;-52
2022/10/26 00:41:27;;;;;;;8.40;1.77;;;;;;;13.35;100.00;100436.03;8378798;28;20489;-53
2022/10/26 00:45:29;;;;;;;5.93;2.20;;;;;;;13.38;100.00;100441.16;8395306;28;20033;-54
2022/10/26 00:49:30;;;;;;;4.80;2.10;;;;;;;13.40;100.00;100439.16;8377215;28;20044;-54
2022/10/26 00:53:31;;;;;;;6.97;2.20;;;;;;;13.40;100.00;100436.44;8394769;28;20036;-53
2022/10/26 00:57:34;;;;;;;4.20;1.90;;;;;;;13.39;100.00;100437.44;8394652;28;20123;-53
2022/10/26 01:01:38;;;;;;;7.18;2.10;;;;;;;13.36;100.00;100426.91;8393750;28;20025;-52
2022/10/26 01:05:42;;;;;;;5.30;2.17;;;;;;;13.34;100.00;100429.78;8395056;28;20444;-52
2022/10/26 01:09:43;;;;;;;;;;;;;;;13.34;100.00;100418.06;8394698;28;20036;-51
2022/10/26 01:13:45;;;;;;;6.00;2.17;;;;;;;13.32;100.00;100418.22;8393630;28;19966;-53
2022/10/26 01:18:12;;;;;;;7.95;2.20;;;;;;;13.30;100.00;100416.69;8393839;28;20414;-50
2022/10/26 01:22:19;;;;;;;6.68;2.33;;;;;;;13.27;100.00;100406.16;8393419;28;20076;-52
2022/10/26 01:26:44;;;;;;;5.75;2.60;;;;;;;13.26;100.00;100399.00;8394146;28;20037;-52
2022/10/26 01:30:45;;;;;;;;;;;;;;;13.25;100.00;100397.28;8394295;28;20040;-54
2022/10/26 01:34:56;;;;;;;5.38;2.17;;;;;;;13.27;100.00;100387.13;8393404;28;20222;-53
2022/10/26 01:39:05;;;;;;;9.20;2.53;;;;;;;13.28;100.00;100386.13;8376720;28;20119;-53
2022/10/26 01:43:10;;;;;;;15.20;3.03;;;;;;;13.34;100.00;100377.31;8376590;28;20079;-51
2022/10/26 01:47:14;;;;;;;5.60;2.38;;;;;;;13.36;100.00;100378.03;8376810;28;20045;-51
2022/10/26 01:51:15;;;;;;;11.35;2.50;;;;;;;13.39;100.00;100372.28;8376251;28;20041;-51
2022/10/26 01:55:44;;;;;;;5.97;2.15;;;;;;;13.43;100.00;100368.22;8376617;28;20121;-54
2022/10/26 02:04:38;;;;;;;5.03;1.88;;;;;;;13.57;100.00;100364.88;8412117;27;20468;-50
2022/10/26 02:13:15;;;;;;;10.38;2.53;;;;;;;13.76;100.00;100353.75;8349387;27;20400;-53
2022/10/26 02:17:26;;;;;;;5.65;2.55;;;;;;;13.85;100.00;100358.19;8352257;28;20049;-54
2022/10/26 02:21:34;;;;;;;9.15;2.25;;;;;;;13.88;100.00;100349.72;8351540;28;20040;-51
2022/10/26 02:25:41;;;;;;;10.05;2.63;;;;;;;13.91;100.00;100362.97;8352585;28;20139;-51
2022/10/26 02:29:42;;;;;;;7.40;2.20;;;;;;;14.00;100.00;100351.06;8353167;28;20042;-52
2022/10/26 02:33:47;;;;;;;6.93;2.30;;;;;;;14.06;100.00;100355.84;8353872;28;20045;-48
2022/10/26 02:37:51;;;;;;;8.05;2.97;;;;;;;14.01;100.00;100358.22;8353144;28;20498;-48
2022/10/26 02:41:53;;;;;;;5.03;1.93;;;;;;;14.04;100.00;100351.59;8350669;28;20034;-48
2022/10/26 02:46:01;;;;;;;7.60;1.90;;;;;;;14.08;100.00;100345.66;8351575;28;20448;-52
2022/10/26 02:50:02;;;;;;;7.50;2.33;;;;;;;14.12;100.00;100338.88;8367194;28;20041;-49
2022/10/26 02:54:16;;;;;;;4.25;2.03;;;;;;;14.17;100.00;100336.50;8351062;28;20041;-49
2022/10/26 02:58:23;;;;;;;7.53;2.03;;;;;;;14.21;100.00;100331.59;8352268;28;20056;-49
2022/10/26 03:02:25;;;;;;;4.07;1.98;;;;;;;14.23;100.00;100335.88;8350316;28;20413;-50
2022/10/26 03:06:26;;;;;;;9.45;1.98;;;;;;;14.24;100.00;100332.13;8348831;28;20397;-48
2022/10/26 03:10:28;;;;;;;7.40;2.13;;;;;;;14.29;100.00;100329.75;8349615;28;20130;-48
2022/10/26 03:14:28;;;;;;;4.43;1.55;;;;;;;14.29;100.00;100339.78;8351136;28;20041;-50
2022/10/26 03:18:29;;;;;;;8.27;1.80;;;;;;;14.17;100.00;100341.94;8351028;28;20040;-49
2022/10/26 03:22:30;;;;;;;6.32;1.60;;;;;;;14.11;100.00;100337.19;8338569;28;20044;-49
2022/10/26 03:26:30;;;;;;;4.38;1.75;;;;;;;14.07;100.00;100334.97;8328592;28;20052;-50
2022/10/26 03:30:31;;;;;;;5.65;1.75;;;;;;;13.99;100.00;100338.50;8329357;28;20025;-49
2022/10/26 03:34:32;;;;;;;6.45;1.92;;;;;;;14.00;100.00;100348.34;8328966;28;20049;-49
2022/10/26 03:38:33;;;;;;;6.05;2.17;;;;;;;14.04;100.00;100338.88;8329259;28;20056;-49
2022/10/26 03:42:35;;;;;;;7.18;1.75;;;;;;;14.11;100.00;100337.19;8328490;28;20044;-48
2022/10/26 03:46:36;;;;;;;8.50;1.98;;;;;;;14.18;100.00;100335.47;8328610;28;20029;-49
2022/10/26 03:50:36;;;;;;;4.65;1.83;;;;;;;14.31;100.00;100343.19;8329151;28;20099;-49
2022/10/26 03:54:37;;;;;;;5.50;1.83;;;;;;;14.32;100.00;100334.88;8328426;28;20048;-49
2022/10/26 03:58:37;;;;;;;5.20;2.13;;;;;;;14.38;100.00;100330.59;8328288;28;20514;-49
2022/10/26 04:02:38;;;;;;;7.18;2.03;;;;;;;14.47;100.00;100345.91;8327607;28;20112;-48
2022/10/26 04:06:39;;;;;;;6.93;1.67;;;;;;;14.50;100.00;100338.28;8334550;28;20117;-48
2022/10/26 04:10:39;;;;;;;3.30;1.52;;;;;;;14.50;100.00;100331.97;8325901;28;20394;-49
2022/10/26 04:14:40;;;;;;;6.88;1.83;;;;;;;14.55;100.00;100335.88;8294805;28;20092;-49
2022/10/26 04:18:41;;;;;;;6.25;1.60;;;;;;;14.65;100.00;100342.00;8321375;28;20091;-51
2022/10/26 04:22:42;;;;;;;14.65;2.75;;;;;;;14.71;100.00;100335.88;8342127;28;20044;-50
2022/10/26 04:26:44;;;;;;;6.70;1.63;;;;;;;14.80;100.00;100334.88;8327534;28;20564;-49
2022/10/26 04:30:46;;;;;;;4.18;1.30;;;;;;;14.91;100.00;100329.03;8322939;28;20030;-49
2022/10/26 04:34:47;;;;;;;10.50;1.58;;;;;;;14.95;100.00;100335.00;8316113;28;20402;-48
2022/10/26 04:38:48;;;;;;;3.50;1.45;;;;;;;15.02;100.00;100338.72;8326698;28;20124;-49
2022/10/26 04:42:48;;;;;;;4.70;1.40;;;;;;;14.97;100.00;100347.41;8314040;28;20616;-49
2022/10/26 04:46:49;;;;;;;6.63;1.65;;;;;;;14.91;100.00;100348.09;8307985;28;20049;-49
2022/10/26 04:50:50;;;;;;;4.20;1.80;;;;;;;14.80;100.00;100350.34;8313089;28;20037;-49
2022/10/26 04:54:50;;;;;;;3.60;1.33;;;;;;;14.76;100.00;100344.38;8294268;28;20053;-50
2022/10/26 04:58:53;;;;;;;5.07;1.42;;;;;;;14.78;100.00;100339.63;8303252;28;20092;-53
2022/10/26 05:03:03;;;;;;;5.10;1.65;;;;;;;14.87;100.00;100329.56;8307510;28;20037;-51
2022/10/26 05:07:03;;;;;;;8.93;1.73;;;;;;;15.02;100.00;100334.13;8311664;28;20042;-49
2022/10/26 05:11:04;;;;;;;4.00;1.77;;;;;;;15.06;100.00;100340.06;8321213;28;20523;-49
2022/10/26 05:15:05;;;;;;;4.18;1.10;;;;;;;15.02;100.00;100342.31;8309054;28;20038;-52
2022/10/26 05:19:06;;;;;;;2.78;1.60;;;;;;;15.00;100.00;100344.34;8310630;28;20033;-49
2022/10/26 05:23:10;;;;;;;8.13;1.48;;;;;;;15.00;100.00;100338.91;8324141;28;20064;-53
2022/10/26 05:27:11;;;;;;;3.28;1.50;;;;;;;14.97;100.00;100336.53;8323096;28;20060;-52
2022/10/26 05:31:12;;;;;;;3.20;1.58;;;;;;;14.96;100.00;100344.84;8322354;28;20041;-48
2022/10/26 05:35:13;;;;;;;4.10;1.67;;;;;;;14.92;100.00;100347.09;8323461;28;20042;-49
2022/10/26 05:39:13;;;;;;;4.63;1.63;;;;;;;14.92;100.00;100360.72;8310969;28;20049;-50
2022/10/26 05:43:14;;;;;;;2.85;1.00;;;;;;;14.93;100.00;100361.53;8289528;28;20123;-50
2022/10/26 05:47:15;;;;;;;5.93;1.80;;;;;;;14.95;100.00;100371.22;8307437;28;20045;-50
2022/10/26 05:51:15;;;;;;;5.63;1.65;;;;;;;14.94;100.00;100360.50;8325055;28;20038;-50
2022/10/26 05:55:17;;;;;;;5.10;2.00;;;;;;;14.81;100.00;100366.50;8325000;28;20124;-50
2022/10/26 05:59:18;;;;;;;4.45;2.08;;;;;;;14.75;100.00;100375.34;8322553;28;20044;-50
2022/10/26 06:03:58;;;;;;;4.30;2.15;;;;;;;14.68;100.00;100396.09;8306619;28;20844;-50
2022/10/26 06:07:59;;;;;;;5.07;2.42;;;;;;;14.65;100.00;100401.88;8319997;28;20045;-50
2022/10/26 06:12:00;;;;;;;5.03;2.20;;;;;;;14.61;100.00;100405.94;8325457;28;20171;-51
2022/10/26 06:20:42;;;;;;;9.82;2.38;;;;;;;14.51;100.00;100416.13;8302841;27;20882;-50
2022/10/26 06:25:08;;;;;;;8.73;2.85;;;;;;;14.47;100.00;100412.06;8290169;28;20041;-50
2022/10/26 06:29:21;;;;;;;8.07;3.10;;;;;;;14.46;100.00;100406.78;8305682;28;20038;-50
2022/10/26 06:33:23;;;;;;;9.93;4.32;;;;;;;14.48;100.00;100396.56;8309410;28;20039;-50
2022/10/26 06:37:24;;;;;;;12.75;4.13;;;;;;;14.50;100.00;100395.41;8318858;28;20066;-50
2022/10/26 06:41:25;;;;;;;12.68;5.60;;;;;;;14.46;100.00;100407.66;8323687;28;20048;-49
2022/10/26 06:45:26;;;;;;;11.43;3.72;;;;;;;14.44;100.00;100393.34;8331633;28;21125;-52
2022/10/26 06:49:33;;;;;;;10.43;3.03;;;;;;;14.43;100.00;100405.25;8312190;28;20495;-52
2022/10/26 06:54:04;;;;;;;11.13;3.63;;;;;;;14.51;100.00;100394.38;8300563;28;20055;-50
2022/10/26 06:58:10;;;;;;;10.43;3.33;;;;;;;14.53;100.00;100403.22;8309446;28;20422;-51
2022/10/26 07:02:11;;;;;;;6.53;3.40;;;;;;;14.59;100.00;100397.09;8306769;28;20042;-49
2022/10/26 07:06:12;;;;;;;9.00;3.25;;;;;;;14.62;100.00;100410.38;8307957;28;20040;-50
2022/10/26 07:10:13;;;;;;;9.60;3.22;;;;;;;14.71;100.00;100409.38;8291896;28;20030;-49
2022/10/26 07:14:14;;;;;;;11.23;2.83;;;;;;;14.78;100.00;100407.66;8302688;28;20053;-53
2022/10/26 07:18:14;;;;;;;12.55;3.35;;;;;;;14.83;100.00;100435.22;8305198;28;20124;-49
2022/10/26 07:22:15;;;;;;;9.13;3.00;;;;;;;14.90;100.00;100425.34;8317278;28;20505;-50
2022/10/26 07:26:16;;;;;;;13.00;4.63;;;;;;;14.99;100.00;100416.16;8334166;28;20088;-50
2022/10/26 07:30:17;;;;;;;8.07;3.00;;;;;;;14.94;100.00;100406.78;8300753;28;20045;-49
2022/10/26 07:34:17;;;;;;;7.47;2.90;;;;;;;14.87;100.00;100401.19;8293023;28;20092;-49
2022/10/26 07:38:18;;;;;;;6.78;2.65;;;;;;;14.89;100.00;100418.22;8292879;28;20344;-51
2022/10/26 07:42:19;;;;;;;11.23;2.85;;;;;;;15.00;100.00;100417.84;8298018;28;20046;-50
2022/10/26 07:46:20;;;;;;;10.85;3.47;;;;;;;15.02;100.00;100421.25;8292100;28;20037;-52
2022/10/26 07:50:21;;;;;;;8.73;2.83;;;;;;;15.23;100.00;100413.41;8292800;28;20507;-49
2022/10/26 07:54:21;;;;;;;9.35;3.17;;;;;;;15.43;100.00;100425.66;8291351;28;20030;-50
2022/10/26 07:58:24;;;;;;;6.30;2.60;;;;;;;15.57;100.00;100421.34;8286798;28;20046;-50
2022/10/26 08:02:25;;;;;;;5.97;2.50;;;;;;;15.76;100.00;100422.84;8278358;28;20129;-51
2022/10/26 08:06:26;;;;;;;4.95;2.33;;;;;;;15.92;100.00;100423.59;8293752;28;20567;-49
2022/10/26 08:10:26;;;;;;;6.75;1.73;;;;;;;16.02;100.00;100437.03;8305294;28;20112;-49
2022/10/26 08:14:27;;;;;;;3.35;1.55;;;;;;;16.28;100.00;100432.97;8283360;28;20045;-51
2022/10/26 08:18:28;;;;;;;4.75;2.13;;;;;;;16.57;100.00;100437.78;8302606;28;20038;-51
2022/10/26 08:22:29;;;;;;;9.75;1.90;;;;;;;16.85;100.00;100445.25;8284079;28;20056;-49
2022/10/26 08:26:30;;;;;;;4.93;1.98;;;;;;;16.81;100.00;100440.34;8277203;28;20573;-50
2022/10/26 08:30:31;;;;;;;4.50;1.77;;;;;;;16.80;100.00;100450.41;8288587;28;20463;-51
2022/10/26 08:34:32;;;;;;;6.65;2.33;;;;;;;16.74;100.00;100451.13;8301658;28;20299;-49
2022/10/26 08:38:32;;;;;;;6.97;2.05;;;;;;;16.75;100.00;100457.44;8277828;28;20038;-51
2022/10/26 08:42:42;;;;;;;10.10;2.25;;;;;;;16.78;100.00;100457.09;8275650;28;20096;-49
2022/10/26 08:46:48;;;;;;;6.10;2.35;;;;;;;16.85;100.00;100458.03;8287581;28;20042;-53
2022/10/26 08:50:54;;;;;;;8.73;2.10;;;;;;;17.17;100.00;100446.88;8279265;28;20042;-52
2022/10/26 08:54:58;;;;;;;4.55;2.17;;;;;;;17.69;100.00;100458.69;8276771;28;20416;-52
2022/10/26 08:59:38;;;;;;;5.47;1.83;;;;;;;19.65;88.19;100474.63;8273359;28;20030;-53
2022/10/26 09:03:39;;;;;;;5.38;2.50;;;;;;;20.97;82.10;100481.44;8283404;28;20050;-53
2022/10/26 09:07:49;;;;;;;3.65;1.63;;;;;;;21.68;79.25;100491.63;8291117;28;20046;-54
2022/10/26 09:12:00;;;;;;;7.00;1.73;;;;;;;21.88;76.87;100487.00;8278898;28;20065;-52
2022/10/26 09:16:13;;;;;;;11.00;1.90;;;;;;;22.15;76.84;100499.66;8264218;28;20062;-54
2022/10/26 09:20:53;;;;;;;7.75;1.95;;;;;;;21.12;79.34;100512.34;8289693;28;20049;-50
2022/10/26 09:24:55;;;;;;;6.05;1.55;;;;;;;21.97;77.56;100518.75;8290187;28;20498;-54
2022/10/26 09:29:02;;;;;;;4.95;1.70;;;;;;;22.48;75.50;100508.63;8282977;28;20053;-53
2022/10/26 09:33:15;;;;;;;4.95;1.67;;;;;;;23.39;73.73;100520.31;8297093;28;20033;-54
2022/10/26 09:37:36;;;;;;;7.30;1.88;;;;;;;24.28;70.76;100516.09;8287388;28;20470;-52
2022/10/26 09:41:45;;;;;;;6.93;1.40;;;;;;;24.65;70.19;100515.06;8320876;28;20049;-50
2022/10/26 09:45:50;;;;;;;4.55;1.45;;;;;;;24.71;71.23;100522.44;8293709;28;20598;-51
2022/10/26 09:49:57;;;;;;;9.00;1.40;;;;;;;25.54;68.29;100529.75;8289279;28;20096;-53
2022/10/26 09:54:00;;;;;;;4.30;1.52;;;;;;;25.36;67.68;100526.22;8292452;28;20590;-50
2022/10/26 09:58:05;;;;;;;5.82;1.40;;;;;;;26.70;64.94;100534.28;8294483;28;20501;-51
2022/10/26 10:02:34;;;;;;;6.05;1.55;;;;;;;26.94;63.37;100542.53;8318215;28;20053;-50
2022/10/26 10:06:35;;;;;;;14.55;2.10;;;;;;;28.08;59.29;100554.13;8297580;28;20053;-53
2022/10/26 10:10:36;;;;;;;8.77;1.70;;;;;;;29.05;56.81;100567.28;8283781;28;20046;-54
2022/10/26 10:14:39;;;;;;;14.13;1.50;;;;;;;29.10;56.50;100572.94;8297416;28;20045;-51
2022/10/26 10:18:41;;;;;;;3.83;1.20;;;;;;;29.03;56.76;100575.00;8288742;28;20113;-52
2022/10/26 10:23:03;;;;;;;4.35;1.20;;;;;;;29.05;56.55;100577.56;8288085;28;20068;-50
2022/10/26 10:27:17;;;;;;;2.72;0.90;;;;;;;28.71;56.27;100589.91;8282932;28;20149;-54
2022/10/26 10:31:20;;;;;;;4.05;0.80;;;;;;;28.44;57.58;100595.31;8287588;28;20034;-53
2022/10/26 10:35:24;;;;;;;2.97;0.70;;;;;;;28.64;56.37;100601.22;8289049;28;20091;-50
2022/10/26 10:39:41;;;;;;;1.70;0.60;;;;;;;27.90;56.96;100610.00;8261223;28;20038;-53
2022/10/26 10:43:46;;;;;;;5.32;0.90;;;;;;;27.79;57.42;100613.66;8276186;28;20050;-52
2022/10/26 10:48:15;;;;;;;3.03;0.70;;;;;;;27.79;57.16;100608.97;8303510;28;20038;-54
2022/10/26 10:52:34;;;;;;;3.20;0.63;;;;;;;27.52;57.74;100618.16;8281574;28;20041;-50
2022/10/26 10:56:41;;;;;;;2.83;0.90;;;;;;;28.42;57.05;100623.41;8268100;28;20594;-50
2022/10/26 11:00:43;;;;;;;4.38;0.70;;;;;;;28.72;55.53;100631.38;8289243;28;20562;-51
2022/10/26 11:05:05;;;;;;;1.45;0.80;;;;;;;28.25;55.66;100641.19;8289199;28;20034;-54
2022/10/26 11:09:13;;;;;;;1.65;0.68;;;;;;;27.41;57.39;100641.28;8322964;28;20128;-51
2022/10/26 11:13:21;;;;;;;2.97;0.70;;;;;;;27.73;58.04;100642.44;8275534;28;20118;-53
2022/10/26 11:17:26;;;;;;;2.22;0.77;;;;;;;28.11;56.09;100637.06;8282692;28;20042;-50
2022/10/26 11:21:29;;;;;;;3.15;0.75;;;;;;;28.58;55.94;100641.22;8293475;28;20049;-54
2022/10/26 11:25:40;;;;;;;1.92;0.73;;;;;;;28.90;54.97;100639.44;8293388;28;20129;-53
2022/10/26 11:34:39;;;;;;;1.83;0.50;;;;;;;29.30;54.07;100631.66;8351007;27;20411;-50
2022/10/26 11:39:05;;;;;;;1.80;0.70;;;;;;;28.45;55.12;100647.09;8371607;28;20041;-50
2022/10/26 11:43:42;;;;;;;2.78;0.50;;;;;;;29.03;53.86;100644.63;8340074;28;20041;-50
2022/10/26 11:47:50;;;;;;;1.52;0.40;;;;;;;28.25;55.30;100646.75;8346578;28;20091;-50
2022/10/26 11:52:16;;;;;;;4.80;0.40;;;;;;;27.09;57.25;100640.00;8347389;28;20436;-50
2022/10/26 11:56:33;;;;;;;1.25;0.40;;;;;;;26.80;57.56;100637.16;8342211;28;20045;-50
2022/10/26 12:00:48;;;;;;;4.25;0.50;;;;;;;27.34;57.45;100644.19;8337500;28;20047;-50
2022/10/26 12:05:21;;;;;;;1.92;0.50;;;;;;;27.07;58.20;100648.56;8354259;28;20099;-50
2022/10/26 12:09:25;;;;;;;;;;;;;;;26.98;57.65;100660.31;8342170;28;20037;-53
2022/10/26 12:13:51;;;;;;;3.08;0.80;;;;;;;26.13;60.38;100662.66;8327464;28;19944;-50
2022/10/26 12:18:20;;;;;;;1.92;0.60;;;;;;;25.52;62.18;100670.38;8332947;28;20487;-50
2022/10/26 12:22:33;;;;;;;3.40;0.70;;;;;;;26.22;61.13;100666.78;8338203;28;20088;-50
2022/10/26 12:30:45;;;;;;;3.03;0.68;;;;;;;26.82;60.06;100673.00;8328909;27;20395;-50
2022/10/26 12:39:02;;;;;;;1.63;0.82;;;;;;;26.11;59.59;100687.03;8318634;27;20397;-49
2022/10/26 12:43:25;;;;;;;4.18;1.33;;;;;;;25.64;60.56;100695.38;8315161;28;20109;-51
2022/10/26 12:51:42;;;;;;;1.85;0.80;;;;;;;24.12;63.36;100699.06;8355539;27;20877;-52
2022/10/26 13:00:04;;;;;;;1.77;0.40;;;;;;;23.60;63.63;100696.63;8413608;27;20456;-49
2022/10/26 13:08:24;;;;;;;3.85;0.50;;;;;;;23.23;63.33;100698.22;8412710;27;20435;-49
2022/10/26 13:12:26;;;;;;;1.20;0.40;;;;;;;23.11;64.70;100703.56;8404671;28;20534;-50
2022/10/26 13:16:28;;;;;;;3.60;0.47;;;;;;;23.14;66.51;100705.91;8414328;28;20418;-50
2022/10/26 13:20:30;;;;;;;2.05;0.50;;;;;;;23.09;67.04;100710.38;8413547;28;20042;-52
2022/10/26 13:24:33;;;;;;;3.13;0.57;;;;;;;23.10;67.75;100715.69;8414003;28;20508;-50
2022/10/26 13:32:53;;;;;;;2.05;0.55;;;;;;;23.26;67.85;100727.34;8346382;27;20400;-52
2022/10/26 13:37:24;;;;;;;4.05;0.52;;;;;;;22.96;69.03;100727.81;8348751;28;20048;-50
2022/10/26 13:41:32;;;;;;;2.05;0.50;;;;;;;22.92;66.99;100729.31;8344756;28;20442;-52
2022/10/26 13:45:46;;;;;;;1.55;0.50;;;;;;;22.85;66.80;100733.13;8346392;28;20258;-52
2022/10/26 13:49:51;;;;;;;6.22;0.60;;;;;;;22.73;67.33;100730.19;8346975;28;20044;-49
2022/10/26 13:54:06;;;;;;;0.93;0.43;;;;;;;22.82;68.40;100734.44;8330645;28;20107;-52
2022/10/26 13:58:21;;;;;;;0.75;0.38;;;;;;;22.96;66.04;100736.06;8337454;28;20037;-50
2022/10/26 14:02:26;;;;;;;1.08;0.40;;;;;;;22.84;66.70;100737.78;8360900;28;20036;-50
2022/10/26 14:06:33;;;;;;;2.35;0.68;;;;;;;22.81;68.33;100740.16;8347228;28;20041;-49
2022/10/26 14:10:40;;;;;;;2.53;0.40;;;;;;;22.71;66.95;100743.34;8335170;28;20113;-50
2022/10/26 14:14:41;;;;;;;1.73;0.47;;;;;;;22.58;68.24;100739.72;8319804;28;20041;-51
2022/10/26 14:18:42;;;;;;;1.02;0.50;;;;;;;22.52;68.49;100748.84;8338553;28;20029;-50
2022/10/26 14:22:43;;;;;;;2.15;0.50;;;;;;;22.38;68.95;100739.69;8337305;28;20060;-50
2022/10/26 14:26:44;;;;;;;1.05;0.30;;;;;;;22.28;68.09;100752.19;8311737;28;20485;-53
2022/10/26 14:30:44;;;;;;;6.90;0.68;;;;;;;22.20;68.67;100756.00;8342214;28;20098;-51
2022/10/26 14:34:45;;;;;;;2.58;0.30;;;;;;;22.14;69.02;100756.84;8345096;28;20069;-51
2022/10/26 14:38:50;;;;;;;2.08;0.50;;;;;;;22.04;69.22;100761.91;8345862;28;20061;-51
2022/10/26 14:42:54;;;;;;;1.85;0.52;;;;;;;22.04;68.90;100756.41;8315250;28;20030;-49
2022/10/26 14:46:55;;;;;;;1.48;0.65;;;;;;;22.05;68.15;100758.09;8324578;28;20041;-51
2022/10/26 14:51:02;;;;;;;1.77;0.63;;;;;;;22.06;67.81;100759.81;8322981;28;20049;-49
2022/10/26 14:55:13;;;;;;;1.98;0.60;;;;;;;21.97;68.58;100761.06;8323082;28;20054;-51
2022/10/26 14:59:28;;;;;;;3.15;0.50;;;;;;;21.91;68.69;100761.88;8322467;28;20445;-50
2022/10/26 15:03:29;;;;;;;1.83;0.63;;;;;;;21.78;69.45;100761.84;8350150;28;20434;-49
2022/10/26 15:07:39;;;;;;;2.72;0.90;;;;;;;21.74;70.25;100777.06;8320122;28;20038;-50
2022/10/26 15:11:47;;;;;;;2.38;0.50;;;;;;;21.64;70.85;100782.09;8309429;28;20052;-51
2022/10/26 15:15:49;;;;;;;2.90;0.63;;;;;;;21.56;72.18;100785.00;8311295;28;20033;-49
2022/10/26 15:19:51;;;;;;;2.63;0.93;;;;;;;21.43;73.26;100795.13;8337591;28;20056;-50
2022/10/26 15:23:53;;;;;;;4.40;0.60;;;;;;;21.31;74.06;100803.09;8300011;28;20510;-52
2022/10/26 15:28:06;;;;;;;7.07;1.23;;;;;;;21.31;73.64;100814.94;8313860;28;20064;-50
2022/10/26 15:32:23;;;;;;;1.93;0.50;;;;;;;21.16;75.50;100810.59;8315115;28;20505;-49
2022/10/26 15:36:25;;;;;;;3.75;0.60;;;;;;;21.08;75.11;100813.53;8319636;28;20083;-49
2022/10/26 15:40:27;;;;;;;2.60;0.63;;;;;;;21.07;73.93;100814.56;8321273;28;20042;-51
2022/10/26 15:44:29;;;;;;;3.83;0.50;;;;;;;21.01;73.97;100827.22;8320470;28;20037;-49
2022/10/26 15:48:33;;;;;;;1.60;0.47;;;;;;;20.88;74.17;100829.84;8321270;28;20029;-50
2022/10/26 15:52:33;;;;;;;1.90;0.63;;;;;;;20.51;75.94;100832.03;8319071;28;20037;-50
2022/10/26 15:56:35;;;;;;;5.97;0.70;;;;;;;19.96;82.14;100829.94;8328551;28;20307;-50
2022/10/26 16:00:36;;;;;;;3.58;1.13;;;;;;;19.66;85.81;100835.69;8318572;28;20041;-51
2022/10/26 16:04:37;;;;;;;4.32;0.60;;;;;;;19.35;87.86;100834.03;8301057;28;20122;-50
2022/10/26 16:08:38;;;;;;;3.67;0.88;;;;;;;19.96;78.46;100831.84;8303083;28;20042;-50
2022/10/26 16:12:38;;;;;;;2.70;0.60;;;;;;;20.02;78.21;100850.28;8306356;28;20033;-50
2022/10/26 16:16:40;;;;;;;3.53;0.80;;;;;;;19.84;78.63;100852.59;8320987;28;20168;-51
2022/10/26 16:20:43;;;;;;;5.85;0.65;;;;;;;19.69;78.92;100857.25;8322161;28;20565;-51
2022/10/26 16:24:44;;;;;;;5.53;0.73;;;;;;;19.31;84.38;100870.22;8314566;28;20038;-49
2022/10/26 16:28:44;;;;;;;5.82;1.52;;;;;;;18.57;89.05;100882.03;8311092;28;20506;-50
2022/10/26 16:32:45;;;;;;;3.38;0.77;;;;;;;17.83;94.50;100890.00;8320279;28;20061;-50
2022/10/26 16:36:46;;;;;;;3.20;0.85;;;;;;;17.99;95.68;100895.38;8321387;28;20041;-51
2022/10/26 16:40:47;;;;;;;3.97;1.48;;;;;;;17.89;96.01;100905.69;8317506;28;20254;-49
2022/10/26 16:44:47;;;;;;;10.32;4.15;;;;;;;18.42;88.94;100919.44;8318192;28;20037;-49
2022/10/26 16:48:49;;;;;;;3.63;1.40;;;;;;;18.16;91.40;100932.59;8291094;28;20042;-52
2022/10/26 16:52:50;;;;;;;1.42;0.75;;;;;;;17.71;95.18;100937.06;8287399;28;20037;-52
2022/10/26 16:56:50;;;;;;;2.78;0.65;;;;;;;17.68;92.99;100935.53;8285752;28;20030;-53
2022/10/26 17:00:53;;;;;;;4.72;0.90;;;;;;;18.55;83.87;100938.88;8318418;28;20525;-50
2022/10/26 17:04:54;;;;;;;6.78;1.20;;;;;;;18.60;83.17;100941.91;8320820;28;20034;-50
2022/10/26 17:08:54;;;;;;;3.25;1.50;;;;;;;18.47;83.93;100952.63;8311308;28;20064;-50
2022/10/26 17:12:55;;;;;;;7.97;3.65;;;;;;;18.35;84.64;100972.31;8293267;28;20069;-50
2022/10/26 17:16:56;;;;;;;8.95;4.15;;;;;;;18.35;83.90;100975.94;8301185;28;20414;-55
2022/10/26 17:20:56;;;;;;;8.38;2.83;;;;;;;18.17;84.71;100971.75;8302604;28;20675;-49
2022/10/26 17:24:57;;;;;;;2.67;1.58;;;;;;;18.19;84.50;100981.50;8284317;28;20124;-53
2022/10/26 17:28:58;;;;;;;12.02;1.70;;;;;;;17.98;87.37;100991.31;8295020;28;20134;-49
2022/10/26 17:32:59;;;;;;;7.57;1.65;;;;;;;17.48;92.47;100997.94;8333877;28;20592;-53
2022/10/26 17:36:59;;;;;;;2.35;1.30;;;;;;;17.31;93.60;101004.44;8318145;28;20116;-49
2022/10/26 17:41:01;;;;;;;7.03;1.75;;;;;;;17.06;94.92;101007.34;8312191;28;20388;-50
2022/10/26 17:45:02;;;;;;;4.05;1.40;;;;;;;16.94;95.40;101015.03;8285577;28;20038;-50
2022/10/26 17:49:03;;;;;;;8.75;2.67;;;;;;;16.88;96.14;101026.63;8317443;28;20049;-49
2022/10/26 17:53:06;;;;;;;8.55;2.58;;;;;;;17.33;90.40;101034.34;8296864;28;20046;-50
2022/10/26 17:57:07;;;;;;;5.03;1.60;;;;;;;17.41;89.13;101039.78;8303756;28;20430;-49
2022/10/26 18:01:10;;;;;;;5.30;0.90;;;;;;;17.54;87.51;101040.16;8297516;28;20121;-49
2022/10/26 18:05:10;;;;;;;3.63;0.98;;;;;;;17.59;86.91;101055.03;8301561;28;20045;-49
2022/10/26 18:09:11;;;;;;;12.65;10.23;;;;;;;17.76;85.64;101061.31;8298244;28;20581;-49
2022/10/26 18:13:11;;;;;;;7.85;4.32;;;;;;;17.81;85.08;101058.91;8262694;28;20058;-52
2022/10/26 18:17:12;;;;;;;5.22;1.75;;;;;;;17.82;85.41;101060.63;8255667;28;20060;-49
2022/10/26 18:21:13;;;;;;;2.67;0.80;;;;;;;17.87;85.27;101068.31;8266650;28;20045;-52
2022/10/26 18:25:14;;;;;;;6.80;0.90;;;;;;;17.88;84.76;101073.63;8259552;28;20030;-52
2022/10/26 18:29:15;;;;;;;7.38;1.45;;;;;;;17.91;84.15;101078.75;8258324;28;20038;-49
2022/10/26 18:33:15;;;;;;;6.88;1.90;;;;;;;17.86;84.49;101083.88;8255113;28;20050;-49
2022/10/26 18:37:16;;;;;;;4.80;1.20;;;;;;;17.83;84.63;101086.94;8261420;28;20419;-52
2022/10/26 18:41:18;;;;;;;2.53;0.98;;;;;;;17.62;85.77;101091.25;8262717;28;20077;-51
2022/10/26 18:45:19;;;;;;;3.15;0.80;;;;;;;17.43;87.21;101097.91;8255720;28;20153;-49
2022/10/26 18:49:20;;;;;;;5.07;0.80;;;;;;;17.28;88.59;101100.44;8251577;28;20046;-50
2022/10/26 18:53:20;;;;;;;3.17;1.17;;;;;;;17.26;89.75;101102.47;8251405;28;20058;-50
2022/10/26 18:57:25;;;;;;;2.42;1.13;;;;;;;17.35;89.60;101114.25;8257328;28;20038;-52
2022/10/26 19:01:29;;;;;;;2.85;1.05;;;;;;;17.34;90.44;101121.63;8256252;28;20508;-51
2022/10/26 19:05:30;;;;;;;2.92;1.30;;;;;;;17.32;91.04;101128.28;8256096;28;20066;-51
2022/10/26 19:09:30;;;;;;;3.70;1.00;;;;;;;17.28;91.33;101129.66;8260312;28;20046;-50
2022/10/26 19:13:32;;;;;;;3.88;1.30;;;;;;;17.09;92.67;101132.69;8260919;28;20535;-50
2022/10/26 19:17:32;;;;;;;4.55;1.10;;;;;;;17.09;93.65;101124.50;8258095;28;20038;-49
2022/10/26 19:21:33;;;;;;;4.97;1.30;;;;;;;17.13;93.56;101128.59;8283075;28;20128;-49
2022/10/26 19:25:34;;;;;;;7.60;1.25;;;;;;;17.17;93.94;101127.25;8289707;28;20089;-50
2022/10/26 19:29:35;;;;;;;2.75;1.10;;;;;;;17.06;94.73;101130.28;8268480;28;20038;-49
2022/10/26 19:33:36;;;;;;;6.80;1.50;;;;;;;16.86;95.71;101135.19;8257245;28;20096;-50
2022/10/26 19:37:37;;;;;;;4.47;1.42;;;;;;;16.81;96.46;101140.28;8263356;28;20042;-49